createdAt,value
2018-08-12T00:00:45.783Z,99.90
2018-08-12T00:03:17.153Z,99.90
2018-08-12T00:05:48.457Z,99.90
2018-08-12T00:08:20.710Z,99.90
2018-08-12T00:10:52.154Z,99.90
2018-08-12T00:13:23.698Z,99.90
2018-08-12T00:15:55.063Z,99.90
2018-08-12T00:18:26.411Z,99.90
2018-08-12T00:20:57.799Z,99.90
2018-08-12T00:23:29.221Z,99.90
2018-08-12T00:26:00.563Z,99.90
2018-08-12T00:28:32.070Z,99.90
2018-08-12T00:31:03.663Z,99.90
2018-08-12T00:33:35.434Z,99.90
2018-08-12T00:36:06.875Z,99.90
2018-08-12T00:38:38.382Z,99.90
2018-08-12T00:41:10.191Z,99.90
2018-08-12T00:43:41.631Z,99.90
2018-08-12T00:46:13.305Z,99.90
2018-08-12T00:48:44.870Z,99.90
2018-08-12T00:51:16.805Z,99.90
2018-08-12T00:53:48.528Z,99.90
2018-08-12T00:56:20.123Z,99.90
2018-08-12T00:58:51.939Z,99.90
2018-08-12T01:01:23.666Z,99.90
2018-08-12T01:03:55.737Z,99.90
2018-08-12T01:06:27.109Z,99.90
2018-08-12T01:08:58.619Z,99.90
2018-08-12T01:11:30.036Z,99.90
2018-08-12T01:14:01.488Z,99.90
2018-08-12T01:16:32.918Z,99.90
2018-08-12T01:19:04.460Z,99.90
2018-08-12T01:21:35.743Z,99.90
2018-08-12T01:24:07.670Z,99.90
2018-08-12T01:26:39.084Z,99.90
2018-08-12T01:29:10.441Z,99.90
2018-08-12T01:31:41.884Z,99.90
2018-08-12T01:34:13.363Z,99.90
2018-08-12T01:36:44.651Z,99.90
2018-08-12T01:39:16.469Z,99.90
2018-08-12T01:41:47.963Z,99.90
2018-08-12T01:44:19.473Z,99.90
2018-08-12T01:46:50.823Z,99.90
2018-08-12T01:49:22.112Z,99.90
2018-08-12T01:51:53.528Z,99.90
2018-08-12T01:54:24.993Z,99.90
2018-08-12T01:56:56.602Z,99.90
2018-08-12T01:59:28.280Z,99.90
2018-08-12T02:01:59.665Z,99.90
2018-08-12T02:04:31.154Z,99.90
2018-08-12T02:07:02.483Z,99.90
2018-08-12T02:09:34.093Z,99.90
2018-08-12T02:12:05.654Z,99.90
2018-08-12T02:14:36.940Z,99.90
2018-08-12T02:17:08.906Z,99.90
2018-08-12T02:19:40.388Z,99.90
2018-08-12T02:22:11.984Z,99.90
2018-08-12T02:24:43.503Z,99.90
2018-08-12T02:27:15.057Z,99.90
2018-08-12T02:29:46.509Z,99.90
2018-08-12T02:32:17.982Z,99.90
2018-08-12T02:34:49.399Z,99.90
2018-08-12T02:37:20.721Z,99.90
2018-08-12T02:39:52.165Z,99.90
2018-08-12T02:42:23.652Z,99.90
2018-08-12T02:44:55.429Z,99.90
2018-08-12T02:47:26.988Z,99.90
2018-08-12T02:49:58.499Z,99.90
2018-08-12T02:52:29.910Z,99.90
2018-08-12T02:55:01.339Z,99.90
2018-08-12T02:57:32.837Z,99.90
2018-08-12T03:00:04.310Z,99.90
2018-08-12T03:02:35.614Z,99.90
2018-08-12T03:05:07.036Z,99.90
2018-08-12T03:07:38.595Z,99.90
2018-08-12T03:10:10.094Z,99.90
2018-08-12T03:12:41.407Z,99.90
2018-08-12T03:15:13.041Z,99.90
2018-08-12T03:17:44.642Z,99.90
2018-08-12T03:20:16.275Z,99.90
2018-08-12T03:22:47.810Z,99.90
2018-08-12T03:25:19.251Z,99.90
2018-08-12T03:27:50.756Z,99.90
2018-08-12T03:30:22.083Z,99.90
2018-08-12T03:32:53.499Z,99.90
2018-08-12T03:35:25.110Z,99.90
2018-08-12T03:37:56.760Z,99.90
2018-08-12T03:40:28.649Z,99.90
2018-08-12T03:43:00.122Z,99.90
2018-08-12T03:45:31.915Z,99.90
2018-08-12T03:48:03.437Z,99.90
2018-08-12T03:50:34.905Z,99.90
2018-08-12T03:53:06.634Z,99.90
2018-08-12T03:55:38.110Z,99.90
2018-08-12T03:58:09.389Z,99.90
2018-08-12T04:00:40.696Z,99.90
2018-08-12T04:03:11.979Z,99.90
2018-08-12T04:05:43.402Z,99.90
2018-08-12T04:08:14.669Z,99.90
2018-08-12T04:10:46.274Z,99.90
2018-08-12T04:13:17.669Z,99.90
2018-08-12T04:15:49.063Z,99.90
2018-08-12T04:18:20.729Z,99.90
2018-08-12T04:20:52.595Z,99.90
2018-08-12T04:23:24.039Z,99.90
2018-08-12T04:25:55.498Z,99.90
2018-08-12T04:28:26.946Z,99.90
2018-08-12T04:30:58.527Z,99.90
2018-08-12T04:33:30.177Z,99.90
2018-08-12T04:36:01.646Z,99.80
2018-08-12T04:38:33.134Z,99.40
2018-08-12T04:41:04.708Z,98.50
2018-08-12T04:43:36.247Z,97.90
2018-08-12T04:46:07.685Z,97.10
2018-08-12T04:48:39.100Z,96.50
2018-08-12T04:51:10.450Z,95.60
2018-08-12T04:53:41.800Z,95.30
2018-08-12T04:56:13.286Z,94.50
2018-08-12T04:58:44.703Z,94.10
2018-08-12T05:01:16.116Z,93.70
2018-08-12T05:03:47.621Z,93.60
2018-08-12T05:06:18.989Z,93.10
2018-08-12T05:08:50.492Z,93.10
2018-08-12T05:11:21.907Z,91.90
2018-08-12T05:13:53.288Z,91.90
2018-08-12T05:16:24.787Z,91.30
2018-08-12T05:18:56.063Z,90.60
2018-08-12T05:21:27.594Z,88.90
2018-08-12T05:23:58.995Z,88.40
2018-08-12T05:26:30.297Z,87.20
2018-08-12T05:29:01.844Z,87.20
2018-08-12T05:31:33.330Z,85.40
2018-08-12T05:34:04.799Z,84.40
2018-08-12T05:36:36.318Z,82.90
2018-08-12T05:39:12.639Z,82.00
2018-08-12T05:41:44.595Z,81.30
2018-08-12T05:44:16.093Z,79.60
2018-08-12T05:46:47.448Z,79.00
2018-08-12T05:49:19.170Z,78.20
2018-08-12T05:51:50.728Z,76.40
2018-08-12T05:54:22.298Z,77.10
2018-08-12T05:56:53.637Z,75.00
2018-08-12T05:59:25.203Z,74.40
2018-08-12T06:01:56.759Z,74.50
2018-08-12T06:04:28.296Z,71.80
2018-08-12T06:06:59.768Z,70.60
2018-08-12T06:09:31.087Z,70.50
2018-08-12T06:12:02.479Z,70.10
2018-08-12T06:14:34.057Z,69.90
2018-08-12T06:17:05.648Z,74.10
2018-08-12T06:19:37.194Z,74.60
2018-08-12T06:22:08.577Z,73.40
2018-08-12T06:24:40.001Z,72.90
2018-08-12T06:27:11.526Z,73.50
2018-08-12T06:29:42.921Z,69.90
2018-08-12T06:32:14.166Z,76.10
2018-08-12T06:34:45.823Z,82.10
2018-08-12T06:37:17.325Z,83.60
2018-08-12T06:39:48.627Z,83.40
2018-08-12T06:42:19.986Z,82.40
2018-08-12T06:44:51.646Z,79.20
2018-08-12T06:47:23.215Z,77.70
2018-08-12T06:49:54.546Z,80.40
2018-08-12T06:52:25.885Z,80.10
2018-08-12T06:54:57.422Z,81.40
2018-08-12T06:57:28.687Z,81.50
2018-08-12T07:00:00.220Z,78.90
2018-08-12T07:02:31.707Z,80.00
2018-08-12T07:05:03.411Z,76.60
2018-08-12T07:07:34.859Z,75.50
2018-08-12T07:10:08.373Z,74.70
2018-08-12T07:12:40.060Z,76.30
2018-08-12T07:15:15.111Z,76.10
2018-08-12T07:17:47.275Z,74.80
2018-08-12T07:20:18.893Z,75.70
2018-08-12T07:22:50.428Z,77.60
2018-08-12T07:25:21.827Z,79.30
2018-08-12T07:27:53.135Z,78.00
2018-08-12T07:30:24.598Z,76.30
2018-08-12T07:32:55.946Z,76.20
2018-08-12T07:35:27.412Z,76.60
2018-08-12T07:37:59.035Z,77.00
2018-08-12T07:40:30.416Z,77.10
2018-08-12T07:43:01.946Z,75.90
2018-08-12T07:45:33.516Z,76.50
2018-08-12T07:48:05.011Z,77.50
2018-08-12T07:50:36.513Z,76.70
2018-08-12T07:53:07.950Z,74.50
2018-08-12T07:55:39.446Z,72.40
2018-08-12T07:58:10.923Z,70.40
2018-08-12T08:00:42.351Z,72.70
2018-08-12T08:03:13.785Z,72.30
2018-08-12T08:05:45.338Z,72.70
2018-08-12T08:08:16.853Z,68.90
2018-08-12T08:10:48.782Z,65.40
2018-08-12T08:13:20.373Z,66.40
2018-08-12T08:15:51.649Z,68.60
2018-08-12T08:18:23.315Z,71.20
2018-08-12T08:20:55.059Z,72.70
2018-08-12T08:23:26.662Z,72.80
2018-08-12T08:25:58.150Z,72.40
2018-08-12T08:28:29.438Z,70.50
2018-08-12T08:31:00.952Z,69.70
2018-08-12T08:33:32.412Z,65.90
2018-08-12T08:36:03.810Z,67.20
2018-08-12T08:38:35.362Z,66.60
2018-08-12T08:41:07.523Z,66.70
2018-08-12T08:43:39.102Z,66.20
2018-08-12T08:46:10.495Z,64.50
2018-08-12T08:48:41.834Z,63.90
2018-08-12T08:51:13.141Z,61.30
2018-08-12T08:53:44.626Z,61.50
2018-08-12T08:56:16.173Z,60.20
2018-08-12T08:58:47.626Z,58.90
2018-08-12T09:01:19.275Z,57.00
2018-08-12T09:03:50.634Z,58.60
2018-08-12T09:06:22.082Z,58.10
2018-08-12T09:08:53.663Z,57.70
2018-08-12T09:11:25.205Z,58.70
2018-08-12T09:13:56.624Z,57.80
2018-08-12T09:16:27.888Z,56.60
2018-08-12T09:18:59.351Z,56.80
2018-08-12T09:21:30.711Z,56.40
2018-08-12T09:24:02.291Z,57.00
2018-08-12T09:26:33.794Z,56.00
2018-08-12T09:29:05.627Z,56.20
2018-08-12T09:31:37.029Z,54.20
2018-08-12T09:34:08.338Z,55.50
2018-08-12T09:36:39.965Z,54.90
2018-08-12T09:39:12.811Z,57.10
2018-08-12T09:41:44.338Z,57.00
2018-08-12T09:44:15.850Z,55.50
2018-08-12T09:46:47.243Z,56.20
2018-08-12T09:49:19.208Z,57.30
2018-08-12T09:51:50.886Z,56.70
2018-08-12T09:54:22.160Z,55.70
2018-08-12T09:56:53.841Z,55.70
2018-08-12T09:59:25.444Z,56.90
2018-08-12T10:01:57.026Z,56.90
2018-08-12T10:04:28.517Z,55.80
2018-08-12T10:06:59.867Z,56.40
2018-08-12T10:09:31.186Z,55.70
2018-08-12T10:12:02.729Z,55.00
2018-08-12T10:14:34.217Z,53.90
2018-08-12T10:17:05.896Z,54.80
2018-08-12T10:19:37.617Z,54.30
2018-08-12T10:22:09.206Z,54.20
2018-08-12T10:24:40.789Z,55.20
2018-08-12T10:27:12.516Z,55.20
2018-08-12T10:29:43.971Z,55.70
2018-08-12T10:32:15.802Z,56.40
2018-08-12T10:34:47.423Z,57.20
2018-08-12T10:37:19.393Z,55.80
2018-08-12T10:39:50.877Z,55.40
2018-08-12T10:42:22.496Z,54.70
2018-08-12T10:44:53.948Z,54.80
2018-08-12T10:47:25.351Z,54.90
2018-08-12T10:49:57.007Z,56.00
2018-08-12T10:52:28.737Z,55.40
2018-08-12T10:55:00.122Z,55.90
2018-08-12T10:57:31.815Z,55.70
2018-08-12T11:00:03.895Z,55.90
2018-08-12T11:02:35.420Z,56.80
2018-08-12T11:05:07.055Z,55.60
2018-08-12T11:07:38.573Z,56.80
2018-08-12T11:10:11.163Z,58.20
2018-08-12T11:12:43.274Z,59.00
2018-08-12T11:15:14.444Z,58.10
2018-08-12T11:17:45.964Z,57.60
2018-08-12T11:20:17.266Z,57.90
2018-08-12T11:22:48.778Z,58.70
2018-08-12T11:25:20.242Z,59.70
2018-08-12T11:27:51.784Z,58.00
2018-08-12T11:30:23.333Z,57.80
2018-08-12T11:32:54.700Z,58.60
2018-08-12T11:35:25.961Z,58.60
2018-08-12T11:37:57.540Z,58.90
2018-08-12T11:40:29.125Z,58.30
2018-08-12T11:43:00.439Z,59.40
2018-08-12T11:45:31.648Z,61.30
2018-08-12T11:48:03.099Z,60.10
2018-08-12T11:50:34.646Z,61.30
2018-08-12T11:53:06.009Z,61.60
2018-08-12T11:55:37.534Z,60.90
2018-08-12T11:58:09.102Z,61.60
2018-08-12T12:00:40.490Z,63.20
2018-08-12T12:03:12.488Z,63.00
2018-08-12T12:05:44.021Z,62.70
2018-08-12T12:08:15.595Z,62.70
2018-08-12T12:10:47.193Z,63.60
2018-08-12T12:13:18.814Z,64.20
2018-08-12T12:15:50.074Z,64.90
2018-08-12T12:18:21.747Z,62.50
2018-08-12T12:20:53.179Z,63.20
2018-08-12T12:23:24.510Z,62.90
2018-08-12T12:25:55.842Z,63.30
2018-08-12T12:28:27.210Z,63.80
2018-08-12T12:30:58.875Z,63.60
2018-08-12T12:33:30.274Z,63.30
2018-08-12T12:36:01.740Z,61.80
2018-08-12T12:38:33.040Z,61.20
2018-08-12T12:41:04.659Z,62.30
2018-08-12T12:43:36.152Z,62.00
2018-08-12T12:46:07.646Z,63.90
2018-08-12T12:48:39.141Z,62.70
2018-08-12T12:51:10.777Z,63.00
2018-08-12T12:53:42.195Z,63.70
2018-08-12T12:56:13.868Z,63.20
2018-08-12T12:58:45.563Z,65.10
2018-08-12T13:01:17.282Z,64.20
2018-08-12T13:03:48.658Z,64.90
2018-08-12T13:06:20.105Z,63.70
2018-08-12T13:08:51.470Z,64.40
2018-08-12T13:11:23.739Z,64.50
2018-08-12T13:13:55.137Z,64.40
2018-08-12T13:16:26.641Z,65.70
2018-08-12T13:18:58.164Z,65.70
2018-08-12T13:21:29.507Z,65.10
2018-08-12T13:24:00.789Z,66.60
2018-08-12T13:26:32.156Z,66.60
2018-08-12T13:29:03.891Z,66.80
2018-08-12T13:31:35.450Z,66.50
2018-08-12T13:34:06.989Z,67.20
2018-08-12T13:36:38.507Z,67.50
2018-08-12T13:39:12.844Z,67.50
2018-08-12T13:41:44.486Z,68.50
2018-08-12T13:44:15.929Z,68.70
2018-08-12T13:46:47.489Z,68.60
2018-08-12T13:49:18.961Z,68.20
2018-08-12T13:51:50.225Z,69.20
2018-08-12T13:54:21.769Z,70.20
2018-08-12T13:56:53.203Z,69.30
2018-08-12T13:59:24.738Z,70.20
2018-08-12T14:01:56.130Z,68.80
2018-08-12T14:04:27.655Z,68.60
2018-08-12T14:06:59.007Z,69.70
2018-08-12T14:09:30.359Z,68.10
2018-08-12T14:12:01.735Z,67.90
2018-08-12T14:14:33.167Z,67.70
2018-08-12T14:17:04.702Z,69.00
2018-08-12T14:19:36.280Z,68.00
2018-08-12T14:22:07.737Z,68.20
2018-08-12T14:24:39.100Z,67.60
2018-08-12T14:27:10.415Z,68.70
2018-08-12T14:29:41.877Z,67.70
2018-08-12T14:32:13.376Z,67.70
2018-08-12T14:34:44.881Z,68.80
2018-08-12T14:37:16.434Z,66.90
2018-08-12T14:39:47.838Z,67.80
2018-08-12T14:42:19.210Z,67.70
2018-08-12T14:44:50.709Z,68.40
2018-08-12T14:47:22.214Z,69.30
2018-08-12T14:49:53.501Z,69.50
2018-08-12T14:52:24.977Z,69.70
2018-08-12T14:54:56.300Z,69.60
2018-08-12T14:57:27.626Z,70.30
2018-08-12T14:59:59.130Z,70.40
2018-08-12T15:02:30.715Z,71.00
2018-08-12T15:05:02.172Z,69.50
2018-08-12T15:07:33.593Z,69.60
2018-08-12T15:10:06.199Z,70.80
2018-08-12T15:12:37.826Z,69.70
2018-08-12T15:15:11.182Z,70.60
2018-08-12T15:17:43.811Z,70.40
2018-08-12T15:20:15.807Z,70.80
2018-08-12T15:22:47.171Z,70.20
2018-08-12T15:25:20.731Z,70.30
2018-08-12T15:27:52.151Z,71.40
2018-08-12T15:30:23.670Z,72.20
2018-08-12T15:32:55.164Z,70.90
2018-08-12T15:35:26.841Z,70.60
2018-08-12T15:37:58.358Z,71.00
2018-08-12T15:40:29.773Z,71.00
2018-08-12T15:43:01.274Z,71.30
2018-08-12T15:45:32.772Z,72.00
2018-08-12T15:48:04.434Z,71.80
2018-08-12T15:50:36.156Z,72.00
2018-08-12T15:53:07.999Z,73.30
2018-08-12T15:55:39.617Z,72.80
2018-08-12T15:58:17.511Z,72.60
2018-08-12T16:00:49.058Z,72.80
2018-08-12T16:03:20.474Z,73.00
2018-08-12T16:05:52.423Z,73.50
2018-08-12T16:08:23.963Z,74.50
2018-08-12T16:10:55.664Z,74.30
2018-08-12T16:13:27.073Z,73.90
2018-08-12T16:15:58.648Z,74.40
2018-08-12T16:18:30.100Z,74.80
2018-08-12T16:21:01.668Z,74.90
2018-08-12T16:23:33.172Z,75.20
2018-08-12T16:26:04.870Z,74.50
2018-08-12T16:28:36.315Z,75.80
2018-08-12T16:31:08.274Z,75.40
2018-08-12T16:33:39.710Z,76.20
2018-08-12T16:36:11.105Z,75.80
2018-08-12T16:38:42.517Z,76.10
2018-08-12T16:41:14.033Z,76.20
2018-08-12T16:43:45.226Z,76.10
2018-08-12T16:46:16.683Z,76.30
2018-08-12T16:48:47.941Z,76.20
2018-08-12T16:51:19.671Z,76.60
2018-08-12T16:53:51.121Z,77.00
2018-08-12T16:56:22.570Z,77.30
2018-08-12T16:58:53.929Z,77.70
2018-08-12T17:01:25.368Z,77.80
2018-08-12T17:03:56.715Z,77.70
2018-08-12T17:06:28.290Z,78.30
2018-08-12T17:08:59.884Z,78.40
2018-08-12T17:11:31.755Z,78.60
2018-08-12T17:14:03.322Z,78.60
2018-08-12T17:16:34.972Z,79.00
2018-08-12T17:19:06.524Z,78.80
2018-08-12T17:21:37.676Z,79.70
2018-08-12T17:24:08.976Z,78.60
2018-08-12T17:26:40.407Z,79.30
2018-08-12T17:29:11.988Z,79.70
2018-08-12T17:31:43.723Z,80.10
2018-08-12T17:34:15.287Z,80.20
2018-08-12T17:36:47.700Z,80.80
2018-08-12T17:39:19.364Z,80.90
2018-08-12T17:41:50.756Z,81.40
2018-08-12T17:44:22.487Z,81.90
2018-08-12T17:46:53.980Z,82.20
2018-08-12T17:49:25.561Z,82.50
2018-08-12T17:51:56.962Z,83.10
2018-08-12T17:54:28.389Z,83.60
2018-08-12T17:57:00.946Z,84.20
2018-08-12T17:59:32.655Z,84.70
2018-08-12T18:02:04.327Z,86.00
2018-08-12T18:04:35.546Z,85.30
2018-08-12T18:07:06.917Z,85.80
2018-08-12T18:09:39.122Z,86.20
2018-08-12T18:12:10.825Z,86.60
2018-08-12T18:14:43.005Z,87.40
2018-08-12T18:17:14.589Z,87.70
2018-08-12T18:19:46.089Z,87.90
2018-08-12T18:22:17.516Z,88.10
2018-08-12T18:24:48.914Z,88.70
2018-08-12T18:27:20.556Z,88.90
2018-08-12T18:29:52.176Z,89.80
2018-08-12T18:32:23.479Z,90.20
2018-08-12T18:34:55.147Z,90.50
2018-08-12T18:37:26.662Z,90.40
2018-08-12T18:39:58.082Z,91.70
2018-08-12T18:42:29.507Z,91.50
2018-08-12T18:45:01.004Z,92.10
2018-08-12T18:47:32.521Z,93.20
2018-08-12T18:50:03.872Z,93.50
2018-08-12T18:52:35.254Z,94.00
2018-08-12T18:55:08.800Z,94.30
2018-08-12T18:57:40.140Z,94.80
2018-08-12T19:00:14.146Z,95.60
2018-08-12T19:02:45.575Z,95.50
2018-08-12T19:05:17.397Z,96.60
2018-08-12T19:07:48.753Z,96.90
2018-08-12T19:10:20.219Z,97.50
2018-08-12T19:12:52.176Z,98.20
2018-08-12T19:15:23.828Z,99.60
2018-08-12T19:17:55.274Z,99.70
2018-08-12T19:20:26.425Z,99.90
2018-08-12T19:22:57.914Z,99.90
2018-08-12T19:25:29.328Z,99.90
2018-08-12T19:28:00.779Z,99.90
2018-08-12T19:30:32.222Z,99.90
2018-08-12T19:33:03.538Z,99.90
2018-08-12T19:35:35.060Z,99.90
2018-08-12T19:38:06.667Z,99.90
2018-08-12T19:40:38.108Z,99.90
2018-08-12T19:43:09.508Z,99.90
2018-08-12T19:45:40.793Z,99.90
2018-08-12T19:48:11.999Z,99.90
2018-08-12T19:50:43.376Z,99.90
2018-08-12T19:53:14.893Z,99.90
2018-08-12T19:55:46.403Z,99.90
2018-08-12T19:58:17.982Z,99.90
2018-08-12T20:00:49.336Z,99.90
2018-08-12T20:03:20.951Z,99.90
2018-08-12T20:05:52.488Z,99.90
2018-08-12T20:08:24.157Z,99.90
2018-08-12T20:10:55.719Z,99.90
2018-08-12T20:13:27.155Z,99.90
2018-08-12T20:15:59.590Z,99.90
2018-08-12T20:18:31.260Z,99.90
2018-08-12T20:21:02.540Z,99.90
2018-08-12T20:23:33.915Z,99.90
2018-08-12T20:26:05.288Z,99.90
2018-08-12T20:28:36.944Z,99.90
2018-08-12T20:31:08.382Z,99.90
2018-08-12T20:33:39.812Z,99.90
2018-08-12T20:36:11.323Z,99.90
2018-08-12T20:38:42.738Z,99.90
2018-08-12T20:41:14.580Z,99.90
2018-08-12T20:43:46.116Z,99.90
2018-08-12T20:46:18.081Z,99.90
2018-08-12T20:48:49.402Z,99.90
2018-08-12T20:51:20.994Z,99.90
2018-08-12T20:53:52.819Z,99.90
2018-08-12T20:56:24.306Z,99.90
2018-08-12T20:58:55.661Z,99.90
2018-08-12T21:01:27.160Z,99.90
2018-08-12T21:03:58.432Z,99.90
2018-08-12T21:06:29.801Z,99.90
2018-08-12T21:09:01.427Z,99.90
2018-08-12T21:11:32.805Z,99.90
2018-08-12T21:14:04.169Z,99.90
2018-08-12T21:16:35.491Z,99.90
2018-08-12T21:19:07.202Z,99.90
2018-08-12T21:21:38.579Z,99.90
2018-08-12T21:24:10.161Z,99.90
2018-08-12T21:26:41.463Z,99.90
2018-08-12T21:29:12.909Z,99.90
2018-08-12T21:31:44.382Z,99.90
2018-08-12T21:34:15.947Z,99.90
2018-08-12T21:36:47.417Z,99.90
2018-08-12T21:39:18.652Z,99.90
2018-08-12T21:41:50.006Z,99.90
2018-08-12T21:44:21.612Z,99.90
2018-08-12T21:46:52.991Z,99.90
2018-08-12T21:49:24.436Z,99.90
2018-08-12T21:51:56.169Z,99.90
2018-08-12T21:54:27.678Z,99.90
2018-08-12T21:56:58.928Z,99.90
2018-08-12T21:59:30.361Z,99.90
2018-08-12T22:02:02.211Z,99.90
2018-08-12T22:04:33.519Z,99.90
2018-08-12T22:07:04.992Z,99.90
2018-08-12T22:09:36.590Z,99.90
2018-08-12T22:12:08.199Z,99.90
2018-08-12T22:14:39.540Z,99.90
2018-08-12T22:17:11.409Z,99.90
2018-08-12T22:19:43.119Z,99.90
2018-08-12T22:22:14.748Z,99.90
2018-08-12T22:24:46.383Z,99.90
2018-08-12T22:27:17.831Z,99.90
2018-08-12T22:29:49.330Z,99.90
2018-08-12T22:32:20.879Z,99.90
2018-08-12T22:34:52.522Z,99.90
2018-08-12T22:37:23.945Z,99.90
2018-08-12T22:39:55.353Z,99.90
2018-08-12T22:42:26.958Z,99.90
2018-08-12T22:44:58.318Z,99.90
2018-08-12T22:47:30.229Z,99.90
2018-08-12T22:50:01.737Z,99.90
2018-08-12T22:52:33.210Z,99.90
2018-08-12T22:55:04.711Z,99.90
2018-08-12T22:57:40.353Z,99.90
2018-08-12T23:00:16.774Z,99.90
2018-08-12T23:02:48.418Z,99.90
2018-08-12T23:05:19.864Z,99.90
2018-08-12T23:07:51.341Z,99.90
2018-08-12T23:10:23.064Z,99.90
2018-08-12T23:12:54.486Z,99.90
2018-08-12T23:16:10.032Z,99.90
2018-08-12T23:18:41.924Z,99.90
2018-08-12T23:21:15.408Z,99.90
2018-08-12T23:23:48.136Z,99.90
2018-08-12T23:26:21.383Z,99.90
2018-08-12T23:28:52.841Z,99.90
2018-08-12T23:31:24.320Z,99.90
2018-08-12T23:33:55.667Z,99.90
2018-08-12T23:36:27.046Z,99.90
2018-08-12T23:38:58.747Z,99.90
2018-08-12T23:41:30.042Z,99.90
2018-08-12T23:44:01.472Z,99.90
2018-08-12T23:46:32.842Z,99.90
2018-08-12T23:49:04.350Z,99.90
2018-08-12T23:51:35.704Z,99.90
2018-08-12T23:54:07.156Z,99.90
2018-08-12T23:56:38.630Z,99.90
2018-08-12T23:59:10.131Z,99.90
